createdAt,value
2022-12-22T00:02:06.939Z,3.92
2022-12-22T00:04:52.202Z,2.53
2022-12-22T00:07:37.223Z,2.85
2022-12-22T00:10:25.746Z,3.58
2022-12-22T00:13:14.032Z,3.70
2022-12-22T00:15:59.536Z,3.40
2022-12-22T00:18:47.697Z,7.10
2022-12-22T00:21:33.433Z,4.32
2022-12-22T00:24:18.696Z,2.60
2022-12-22T00:27:07.411Z,4.38
2022-12-22T00:30:00.236Z,4.80
2022-12-22T00:32:53.832Z,3.88
2022-12-22T00:35:47.424Z,4.13
2022-12-22T00:38:37.565Z,3.42
2022-12-22T00:41:25.784Z,3.90
2022-12-22T00:44:11.469Z,2.45
2022-12-22T00:47:01.177Z,2.60
2022-12-22T00:49:50.864Z,2.40
2022-12-22T00:52:37.578Z,1.75
2022-12-22T00:55:30.810Z,2.58
2022-12-22T00:58:18.498Z,2.58
2022-12-22T01:01:06.691Z,2.65
2022-12-22T01:03:52.583Z,2.97
2022-12-22T01:06:41.210Z,3.72
2022-12-22T01:09:28.395Z,2.15
2022-12-22T01:12:13.672Z,4.88
2022-12-22T01:15:01.655Z,3.40
2022-12-22T01:17:46.975Z,3.13
2022-12-22T01:20:32.103Z,4.20
2022-12-22T01:23:18.043Z,2.60
2022-12-22T01:26:03.545Z,4.47
2022-12-22T01:28:48.753Z,3.05
2022-12-22T01:31:37.867Z,3.22
2022-12-22T01:34:23.266Z,3.40
2022-12-22T01:37:08.667Z,2.83
2022-12-22T01:39:56.913Z,2.85
2022-12-22T01:42:42.622Z,3.00
2022-12-22T01:45:51.122Z,2.75
2022-12-22T01:48:37.698Z,3.00
2022-12-22T01:51:34.204Z,4.25
2022-12-22T01:54:19.260Z,3.45
2022-12-22T01:57:07.833Z,3.58
2022-12-22T01:59:53.528Z,2.72
2022-12-22T02:02:40.170Z,4.00
2022-12-22T02:05:26.653Z,3.00
2022-12-22T02:08:21.208Z,3.85
2022-12-22T02:11:15.867Z,2.97
2022-12-22T02:14:15.294Z,3.38
2022-12-22T02:17:08.645Z,3.63
2022-12-22T02:20:09.124Z,3.90
2022-12-22T02:23:14.832Z,4.30
2022-12-22T02:26:20.449Z,3.60
2022-12-22T02:29:08.066Z,3.28
2022-12-22T02:31:56.753Z,3.20
2022-12-22T02:34:42.248Z,4.47
2022-12-22T02:37:39.991Z,4.10
2022-12-22T02:40:40.637Z,3.28
2022-12-22T02:43:26.673Z,3.65
2022-12-22T02:46:19.991Z,2.35
2022-12-22T02:49:04.934Z,3.13
2022-12-22T02:51:54.985Z,3.35
2022-12-22T02:54:43.467Z,3.53
2022-12-22T02:57:29.194Z,2.72
2022-12-22T03:00:14.315Z,2.83
2022-12-22T03:02:59.815Z,3.33
2022-12-22T03:05:45.147Z,3.28
2022-12-22T03:08:30.117Z,3.70
2022-12-22T03:11:18.276Z,3.63
2022-12-22T03:14:03.481Z,3.50
2022-12-22T03:16:51.550Z,2.92
2022-12-22T03:19:39.683Z,2.35
2022-12-22T03:22:25.203Z,2.92
2022-12-22T03:25:13.434Z,3.08
2022-12-22T03:27:44.332Z,2.45
2022-12-22T03:30:14.315Z,2.28
2022-12-22T03:32:55.126Z,2.60
2022-12-22T03:35:28.027Z,3.30
2022-12-22T03:37:55.237Z,2.88
2022-12-22T03:40:22.865Z,3.50
2022-12-22T03:43:11.005Z,3.72
2022-12-22T03:45:59.276Z,3.35
2022-12-22T03:48:29.706Z,3.28
2022-12-22T03:51:01.250Z,2.97
2022-12-22T03:53:34.111Z,3.42
2022-12-22T03:56:07.304Z,3.45
2022-12-22T03:58:34.790Z,3.17
2022-12-22T04:01:05.959Z,2.92
2022-12-22T04:03:36.185Z,3.30
2022-12-22T04:06:15.037Z,3.28
2022-12-22T04:08:45.537Z,3.28
2022-12-22T04:11:31.598Z,3.28
2022-12-22T04:13:58.866Z,3.33
2022-12-22T04:16:27.205Z,3.28
2022-12-22T04:18:57.262Z,2.97
2022-12-22T04:21:28.861Z,3.15
2022-12-22T04:24:01.612Z,3.17
2022-12-22T04:26:32.148Z,3.47
2022-12-22T04:28:59.215Z,2.65
2022-12-22T04:31:26.206Z,3.45
2022-12-22T04:33:55.287Z,2.63
2022-12-22T04:36:29.055Z,2.20
2022-12-22T04:38:56.423Z,3.65
2022-12-22T04:41:26.270Z,2.90
2022-12-22T04:43:59.181Z,3.25
2022-12-22T04:46:33.679Z,2.78
2022-12-22T04:49:06.853Z,2.85
2022-12-22T04:51:39.709Z,3.75
2022-12-22T04:54:08.103Z,4.13
2022-12-22T04:56:38.973Z,2.75
2022-12-22T04:59:05.730Z,3.28
2022-12-22T05:01:38.433Z,2.80
2022-12-22T05:04:06.095Z,3.42
2022-12-22T05:06:35.455Z,3.67
2022-12-22T05:09:05.081Z,3.97
2022-12-22T05:11:35.523Z,3.13
2022-12-22T05:14:07.574Z,3.20
2022-12-22T05:16:37.907Z,2.72
2022-12-22T05:19:04.809Z,0.77
2022-12-22T05:21:31.868Z,4.25
2022-12-22T05:24:02.004Z,5.13
2022-12-22T05:26:34.818Z,3.60
2022-12-22T05:29:04.516Z,3.67
2022-12-22T05:31:31.540Z,4.40
2022-12-22T05:34:01.721Z,3.63
2022-12-22T05:36:34.810Z,3.45
2022-12-22T05:39:23.052Z,3.13
2022-12-22T05:41:53.251Z,2.78
2022-12-22T05:44:24.163Z,3.78
2022-12-22T05:46:52.636Z,3.45
2022-12-22T05:49:23.540Z,3.13
2022-12-22T05:51:54.602Z,3.45
2022-12-22T05:54:24.447Z,3.35
2022-12-22T05:56:54.175Z,3.85
2022-12-22T05:59:27.167Z,2.67
2022-12-22T06:01:57.448Z,3.55
2022-12-22T06:04:27.953Z,3.20
2022-12-22T06:06:58.174Z,3.30
2022-12-22T06:09:28.046Z,2.65
2022-12-22T06:11:55.202Z,2.92
2022-12-22T06:14:28.284Z,2.45
2022-12-22T06:17:01.446Z,3.03
2022-12-22T06:19:30.254Z,2.97
2022-12-22T06:21:57.691Z,2.63
2022-12-22T06:24:28.228Z,3.45
2022-12-22T06:26:59.134Z,3.45
2022-12-22T06:29:31.731Z,2.75
2022-12-22T06:32:04.964Z,2.92
2022-12-22T06:34:35.034Z,2.40
2022-12-22T06:37:09.018Z,2.75
2022-12-22T06:39:39.291Z,3.05
2022-12-22T06:42:25.118Z,2.20
2022-12-22T06:44:58.729Z,2.08
2022-12-22T06:47:31.299Z,2.38
2022-12-22T06:49:58.475Z,3.10
2022-12-22T06:52:31.922Z,2.83
2022-12-22T06:55:04.797Z,2.17
2022-12-22T06:57:41.221Z,1.75
2022-12-22T07:00:11.622Z,1.73
2022-12-22T07:02:44.815Z,1.95
2022-12-22T07:05:21.438Z,1.98
2022-12-22T07:07:50.763Z,1.90
2022-12-22T07:10:46.376Z,1.77
2022-12-22T07:13:22.416Z,1.73
2022-12-22T07:16:00.027Z,1.52
2022-12-22T07:18:35.059Z,2.10
2022-12-22T07:21:04.742Z,1.70
2022-12-22T07:23:35.485Z,1.75
2022-12-22T07:26:04.165Z,1.80
2022-12-22T07:28:38.765Z,1.80
2022-12-22T07:31:10.495Z,1.23
2022-12-22T07:33:42.423Z,1.40
2022-12-22T07:36:13.495Z,2.00
2022-12-22T07:38:44.572Z,1.40
2022-12-22T07:41:30.507Z,0.85
2022-12-22T07:43:58.500Z,0.80
2022-12-22T07:46:32.094Z,1.63
2022-12-22T07:49:17.490Z,1.10
2022-12-22T07:51:47.698Z,1.38
2022-12-22T07:54:18.251Z,1.42
2022-12-22T07:56:47.125Z,1.17
2022-12-22T07:59:18.032Z,1.30
2022-12-22T08:01:48.266Z,1.20
2022-12-22T08:04:19.837Z,1.08
2022-12-22T08:06:50.230Z,1.13
2022-12-22T08:09:21.845Z,0.63
2022-12-22T08:11:51.879Z,1.15
2022-12-22T08:14:19.102Z,0.98
2022-12-22T08:16:49.391Z,1.00
2022-12-22T08:19:20.148Z,1.17
2022-12-22T08:21:52.573Z,0.45
2022-12-22T08:24:25.397Z,0.85
2022-12-22T08:26:58.278Z,0.75
2022-12-22T08:29:34.813Z,0.90
2022-12-22T08:32:01.918Z,0.50
2022-12-22T08:34:29.225Z,1.05
2022-12-22T08:36:58.339Z,0.95
2022-12-22T08:39:27.189Z,0.80
2022-12-22T08:41:58.775Z,0.90
2022-12-22T08:44:29.730Z,0.60
2022-12-22T08:46:58.296Z,0.50
2022-12-22T08:49:26.021Z,0.77
2022-12-22T08:51:56.846Z,1.20
2022-12-22T08:54:23.814Z,1.10
2022-12-22T08:56:51.149Z,1.10
2022-12-22T08:59:18.292Z,1.10
2022-12-22T09:01:49.059Z,1.10
2022-12-22T09:04:20.391Z,0.70
2022-12-22T09:06:54.709Z,1.60
2022-12-22T09:09:25.002Z,1.25
2022-12-22T09:11:52.195Z,0.70
2022-12-22T09:14:22.625Z,1.55
2022-12-22T09:16:51.325Z,0.80
2022-12-22T09:19:24.525Z,1.20
2022-12-22T09:22:00.933Z,0.95
2022-12-22T09:24:33.365Z,0.90
2022-12-22T09:27:05.060Z,0.80
2022-12-22T09:29:34.771Z,1.50
2022-12-22T09:32:05.261Z,1.80
2022-12-22T09:34:38.111Z,1.13
2022-12-22T09:37:11.614Z,1.23
2022-12-22T09:39:38.738Z,0.55
2022-12-22T09:42:08.780Z,0.75
2022-12-22T09:44:40.419Z,0.98
2022-12-22T09:47:30.021Z,0.82
2022-12-22T09:50:00.193Z,0.80
2022-12-22T09:52:36.118Z,1.10
2022-12-22T09:55:06.382Z,1.02
2022-12-22T09:57:37.379Z,1.15
2022-12-22T10:00:25.278Z,1.20
2022-12-22T10:03:18.535Z,1.40
2022-12-22T10:06:04.190Z,0.60
2022-12-22T10:08:36.781Z,1.00
2022-12-22T10:11:06.819Z,1.38
2022-12-22T10:13:39.241Z,1.17
2022-12-22T10:16:26.216Z,0.88
2022-12-22T10:19:14.466Z,1.35
2022-12-22T10:21:46.883Z,0.90
2022-12-22T10:24:30.052Z,0.60
2022-12-22T10:27:05.165Z,1.05
2022-12-22T10:29:36.172Z,1.10
2022-12-22T10:32:16.614Z,0.98
2022-12-22T10:35:00.741Z,0.80
2022-12-22T10:37:35.837Z,0.75
2022-12-22T10:40:15.053Z,0.95
2022-12-22T10:43:02.542Z,0.70
2022-12-22T10:45:35.406Z,1.20
2022-12-22T10:48:09.487Z,0.98
2022-12-22T10:50:50.468Z,0.90
2022-12-22T10:53:17.636Z,0.70
2022-12-22T10:55:47.732Z,1.38
2022-12-22T10:58:22.379Z,1.20
2022-12-22T11:01:01.620Z,0.68
2022-12-22T11:03:32.738Z,1.30
2022-12-22T11:06:04.487Z,1.00
2022-12-22T11:08:32.495Z,1.10
2022-12-22T11:11:06.378Z,0.80
2022-12-22T11:13:51.950Z,1.33
2022-12-22T11:16:31.041Z,0.50
2022-12-22T11:19:12.032Z,0.65
2022-12-22T11:21:45.145Z,0.93
2022-12-22T11:24:22.111Z,0.98
2022-12-22T11:27:04.018Z,0.57
2022-12-22T11:29:56.035Z,0.90
2022-12-22T11:32:52.135Z,0.85
2022-12-22T11:35:28.545Z,1.00
2022-12-22T11:38:06.937Z,0.85
2022-12-22T11:40:39.741Z,0.73
2022-12-22T11:43:25.249Z,1.10
2022-12-22T11:46:10.827Z,1.42
2022-12-22T11:48:56.080Z,0.95
2022-12-22T11:51:38.019Z,0.60
2022-12-22T11:54:23.364Z,0.60
2022-12-22T11:57:20.551Z,0.88
2022-12-22T12:00:32.731Z,1.10
2022-12-22T12:03:30.601Z,0.70
2022-12-22T12:06:03.534Z,0.50
2022-12-22T12:08:36.948Z,0.77
2022-12-22T12:11:24.125Z,0.60
2022-12-22T12:14:33.037Z,0.93
2022-12-22T12:17:05.342Z,0.88
2022-12-22T12:19:43.455Z,0.98
2022-12-22T12:22:36.575Z,0.90
2022-12-22T12:25:26.025Z,0.70
2022-12-22T12:28:08.352Z,1.05
2022-12-22T12:30:56.022Z,0.70
2022-12-22T12:33:35.845Z,0.55
2022-12-22T12:36:06.293Z,0.73
2022-12-22T12:39:08.687Z,0.82
2022-12-22T12:41:50.927Z,0.98
2022-12-22T12:44:22.932Z,0.70
2022-12-22T12:46:53.591Z,0.65
2022-12-22T12:49:39.391Z,0.68
2022-12-22T12:52:18.686Z,0.75
2022-12-22T12:54:49.621Z,1.85
2022-12-22T12:57:24.295Z,0.98
2022-12-22T12:59:55.734Z,0.82
2022-12-22T13:02:29.153Z,0.98
2022-12-22T13:05:08.437Z,0.80
2022-12-22T13:07:54.231Z,0.82
2022-12-22T13:10:24.045Z,0.70
2022-12-22T13:12:52.221Z,0.68
2022-12-22T13:15:28.202Z,0.60
2022-12-22T13:17:58.535Z,0.45
2022-12-22T13:20:27.661Z,0.60
2022-12-22T13:23:01.597Z,0.80
2022-12-22T13:25:40.055Z,0.60
2022-12-22T13:28:10.974Z,0.82
2022-12-22T13:30:38.321Z,0.70
2022-12-22T13:33:17.582Z,0.80
2022-12-22T13:35:50.028Z,0.70
2022-12-22T13:38:31.642Z,0.68
2022-12-22T13:41:06.257Z,0.75
2022-12-22T13:43:42.218Z,0.60
2022-12-22T13:46:42.249Z,0.57
2022-12-22T13:49:36.100Z,0.50
2022-12-22T13:52:15.645Z,0.60
2022-12-22T13:54:49.131Z,0.50
2022-12-22T13:57:21.258Z,0.50
2022-12-22T13:59:52.844Z,0.60
2022-12-22T14:02:21.616Z,0.47
2022-12-22T14:05:15.800Z,0.40
2022-12-22T14:08:01.677Z,0.50
2022-12-22T14:10:43.413Z,0.47
2022-12-22T14:13:18.366Z,0.50
2022-12-22T14:15:48.808Z,0.47
2022-12-22T14:18:19.965Z,0.60
2022-12-22T14:20:47.799Z,0.57
2022-12-22T14:23:25.903Z,0.50
2022-12-22T14:25:54.214Z,0.50
2022-12-22T14:28:31.244Z,0.50
2022-12-22T14:31:02.457Z,0.40
2022-12-22T14:33:31.620Z,0.50
2022-12-22T14:36:14.694Z,0.45
2022-12-22T14:38:47.852Z,0.50
2022-12-22T14:41:41.809Z,0.40
2022-12-22T14:44:16.238Z,0.50
2022-12-22T14:46:48.564Z,0.52
2022-12-22T14:49:19.950Z,0.50
2022-12-22T14:52:03.593Z,0.60
2022-12-22T14:54:33.523Z,0.50
2022-12-22T14:57:15.308Z,0.65
2022-12-22T15:00:00.494Z,0.50
2022-12-22T15:02:38.993Z,0.50
2022-12-22T15:05:23.801Z,0.50
2022-12-22T15:08:09.322Z,0.50
2022-12-22T15:10:41.665Z,0.50
2022-12-22T15:13:14.365Z,0.52
2022-12-22T15:15:48.656Z,0.50
2022-12-22T15:18:21.598Z,0.60
2022-12-22T15:20:52.744Z,0.50
2022-12-22T15:23:19.485Z,0.60
2022-12-22T15:25:49.563Z,0.68
2022-12-22T15:28:23.106Z,0.63
2022-12-22T15:30:56.667Z,0.60
2022-12-22T15:33:29.491Z,0.60
2022-12-22T15:36:00.026Z,0.60
2022-12-22T15:38:27.001Z,1.00
2022-12-22T15:40:59.744Z,0.70
2022-12-22T15:43:56.569Z,0.70
2022-12-22T15:46:17.558Z,0.70
2022-12-22T15:48:45.122Z,0.52
2022-12-22T15:51:23.601Z,0.60
2022-12-22T15:53:50.962Z,0.57
2022-12-22T15:56:21.360Z,0.60
2022-12-22T15:58:49.928Z,0.85
2022-12-22T16:01:20.268Z,1.00
2022-12-22T16:03:47.128Z,0.80
2022-12-22T16:09:28.037Z,0.70
2022-12-22T16:11:58.035Z,0.85
2022-12-22T16:14:39.232Z,0.70
2022-12-22T16:17:19.984Z,0.70
2022-12-22T16:19:50.052Z,0.75
2022-12-22T16:22:20.917Z,1.00
2022-12-22T16:24:52.743Z,0.68
2022-12-22T16:27:26.934Z,0.82
2022-12-22T16:29:54.109Z,0.70
2022-12-22T16:32:25.537Z,0.77
2022-12-22T16:34:53.024Z,0.60
2022-12-22T16:37:25.866Z,0.60
2022-12-22T16:39:59.247Z,0.70
2022-12-22T16:45:21.301Z,0.65
2022-12-22T16:47:49.700Z,0.82
2022-12-22T16:50:17.976Z,0.75
2022-12-22T16:52:45.228Z,0.75
2022-12-22T16:55:25.800Z,0.73
2022-12-22T16:57:52.791Z,0.68
2022-12-22T17:00:27.094Z,0.73
2022-12-22T17:02:58.751Z,0.70
2022-12-22T17:05:36.271Z,0.80
2022-12-22T17:08:13.080Z,0.73
2022-12-22T17:10:43.227Z,0.60
2022-12-22T17:13:34.537Z,0.85
2022-12-22T17:16:02.682Z,0.90
2022-12-22T17:18:33.587Z,0.80
2022-12-22T17:21:04.816Z,0.80
2022-12-22T17:23:38.067Z,0.90
2022-12-22T17:26:15.317Z,0.80
2022-12-22T17:28:48.805Z,0.70
2022-12-22T17:31:20.353Z,0.90
2022-12-22T17:33:53.981Z,0.88
2022-12-22T17:36:32.719Z,1.15
2022-12-22T17:39:00.517Z,0.90
2022-12-22T17:41:30.823Z,1.17
2022-12-22T17:44:01.043Z,1.10
2022-12-22T17:46:28.743Z,0.95
2022-12-22T17:48:56.085Z,1.17
2022-12-22T17:51:32.215Z,1.83
2022-12-22T17:54:02.557Z,1.67
2022-12-22T17:56:35.140Z,1.55
2022-12-22T17:59:05.176Z,1.00
2022-12-22T18:01:32.852Z,1.65
2022-12-22T18:04:09.994Z,1.90
2022-12-22T18:06:44.558Z,1.10
2022-12-22T18:09:22.336Z,0.90
2022-12-22T18:11:50.145Z,0.85
2022-12-22T18:14:24.007Z,0.90
2022-12-22T18:16:51.144Z,0.82
2022-12-22T18:19:24.832Z,0.68
2022-12-22T18:21:52.073Z,0.80
2022-12-22T18:24:23.030Z,1.00
2022-12-22T18:26:53.231Z,0.95
2022-12-22T18:29:55.493Z,0.70
2022-12-22T18:32:27.555Z,0.60
2022-12-22T18:34:55.208Z,0.68
2022-12-22T18:37:24.646Z,0.80
2022-12-22T18:39:51.622Z,0.88
2022-12-22T18:42:22.093Z,0.88
2022-12-22T18:44:54.888Z,0.60
2022-12-22T18:47:22.022Z,0.95
2022-12-22T18:49:55.282Z,1.08
2022-12-22T18:52:27.724Z,1.02
2022-12-22T18:54:55.255Z,1.17
2022-12-22T18:57:24.660Z,0.80
2022-12-22T18:59:54.133Z,1.08
2022-12-22T19:02:31.205Z,1.30
2022-12-22T19:05:02.809Z,1.08
2022-12-22T19:07:33.021Z,1.40
2022-12-22T19:10:05.688Z,1.15
2022-12-22T19:12:38.987Z,0.80
2022-12-22T19:15:06.594Z,1.05
2022-12-22T19:17:36.937Z,0.88
2022-12-22T19:20:04.231Z,1.13
2022-12-22T19:22:34.572Z,1.20
2022-12-22T19:25:05.291Z,0.63
2022-12-22T19:27:38.293Z,1.00
2022-12-22T19:30:05.412Z,0.93
2022-12-22T19:32:46.575Z,0.95
2022-12-22T19:35:26.089Z,1.20
2022-12-22T19:37:53.826Z,1.15
2022-12-22T19:40:29.542Z,1.20
2022-12-22T19:43:00.324Z,0.90
2022-12-22T19:45:30.907Z,0.98
2022-12-22T19:47:58.419Z,1.02
2022-12-22T19:50:26.474Z,1.10
2022-12-22T19:53:00.884Z,1.13
2022-12-22T19:55:35.005Z,0.93
2022-12-22T19:58:08.890Z,0.88
2022-12-22T20:00:39.283Z,1.20
2022-12-22T20:03:12.883Z,1.13
2022-12-22T20:05:43.404Z,0.95
2022-12-22T20:08:16.891Z,1.10
2022-12-22T20:10:45.207Z,1.38
2022-12-22T20:13:16.972Z,1.05
2022-12-22T20:15:48.411Z,0.70
2022-12-22T20:18:23.200Z,1.02
2022-12-22T20:21:19.564Z,1.02
2022-12-22T20:23:50.253Z,1.25
2022-12-22T20:26:20.650Z,1.33
2022-12-22T20:28:53.935Z,0.90
2022-12-22T20:31:25.326Z,1.25
2022-12-22T20:33:57.970Z,1.10
2022-12-22T20:36:31.268Z,0.82
2022-12-22T20:39:02.730Z,1.00
2022-12-22T20:41:33.137Z,0.80
2022-12-22T20:44:01.880Z,1.15
2022-12-22T20:46:32.896Z,0.88
2022-12-22T20:51:49.094Z,0.85
2022-12-22T20:54:16.419Z,1.15
2022-12-22T20:56:46.561Z,1.55
2022-12-22T20:59:19.810Z,1.30
2022-12-22T21:01:47.746Z,1.05
2022-12-22T21:04:18.544Z,1.40
2022-12-22T21:06:54.938Z,1.27
2022-12-22T21:09:27.650Z,1.15
2022-12-22T21:11:57.817Z,1.58
2022-12-22T21:14:32.062Z,1.60
2022-12-22T21:16:59.202Z,1.70
2022-12-22T21:19:29.889Z,1.10
2022-12-22T21:21:57.360Z,1.42
2022-12-22T21:24:32.638Z,1.33
2022-12-22T21:27:01.091Z,1.63
2022-12-22T21:29:30.219Z,2.15
2022-12-22T21:31:59.807Z,1.77
2022-12-22T21:34:30.005Z,1.10
2022-12-22T21:37:00.436Z,1.50
2022-12-22T21:39:27.814Z,1.38
2022-12-22T21:42:05.274Z,1.52
2022-12-22T21:44:33.705Z,1.23
2022-12-22T21:47:07.244Z,1.52
2022-12-22T21:49:43.253Z,1.63
2022-12-22T21:52:13.167Z,1.52
2022-12-22T21:54:43.334Z,1.20
2022-12-22T21:57:15.256Z,1.33
2022-12-22T21:59:46.893Z,1.58
2022-12-22T22:02:19.977Z,0.98
2022-12-22T22:04:54.423Z,1.55
2022-12-22T22:07:23.717Z,0.93
2022-12-22T22:09:56.937Z,1.38
2022-12-22T22:12:37.691Z,1.13
2022-12-22T22:15:05.327Z,1.40
2022-12-22T22:20:24.720Z,1.35
2022-12-22T22:22:52.496Z,1.38
2022-12-22T22:25:26.098Z,1.20
2022-12-22T22:27:53.327Z,1.20
2022-12-22T22:30:22.339Z,1.20
2022-12-22T22:32:49.680Z,1.80
2022-12-22T22:35:19.784Z,1.20
2022-12-22T22:37:53.061Z,1.52
2022-12-22T22:40:23.897Z,1.95
2022-12-22T22:42:54.130Z,1.30
2022-12-22T22:45:23.548Z,1.23
2022-12-22T22:47:54.007Z,1.17
2022-12-22T22:50:24.924Z,1.30
2022-12-22T22:52:56.966Z,1.42
2022-12-22T22:55:26.825Z,1.20
2022-12-22T22:58:03.778Z,1.60
2022-12-22T23:00:33.705Z,1.25
2022-12-22T23:03:02.220Z,1.35
2022-12-22T23:05:32.262Z,1.10
2022-12-22T23:08:02.693Z,1.30
2022-12-22T23:10:33.706Z,1.10
2022-12-22T23:13:08.923Z,1.00
2022-12-22T23:15:35.949Z,1.30
2022-12-22T23:18:07.651Z,1.15
2022-12-22T23:20:34.863Z,1.70
2022-12-22T23:23:01.787Z,1.42
2022-12-22T23:25:28.806Z,1.33
2022-12-22T23:27:55.794Z,0.93
2022-12-22T23:30:25.496Z,1.30
2022-12-22T23:32:56.764Z,1.33
2022-12-22T23:35:23.564Z,1.90
2022-12-22T23:37:54.412Z,1.42
2022-12-22T23:43:10.145Z,0.80
2022-12-22T23:45:38.178Z,0.70
2022-12-22T23:48:08.726Z,1.17
2022-12-22T23:50:35.975Z,1.10
2022-12-22T23:53:07.711Z,1.00
2022-12-22T23:55:34.625Z,0.93
2022-12-22T23:58:01.474Z,1.00
